ADDS TAF Data INFO
IDs: Format: Raw Decoded Include METARs

Data at: 1424 UTC 21 Jan 2018

KHLG 211353Z AUTO 20008KT 10SM OVC017 06/05 A3013 RMK AO2 SLP214 T00560050

KHLG 211136Z 2112/2212 21005KT 4SM -DZ BR OVC003
  TEMPO 2112/2115 1SM -DZ BR
  FM211600 21005KT P6SM VCSH OVC010
  FM220300 21004KT 4SM -DZ BR VCSH OVC006